createdAt,value
2022-09-23T00:02:34.942Z,99.90
2022-09-23T00:06:52.351Z,99.90
2022-09-23T00:11:19.967Z,99.90
2022-09-23T00:15:40.481Z,99.90
2022-09-23T00:19:57.740Z,99.90
2022-09-23T00:24:15.873Z,99.90
2022-09-23T00:28:34.163Z,99.90
2022-09-23T00:32:52.938Z,99.90
2022-09-23T00:37:10.389Z,99.90
2022-09-23T00:41:27.901Z,99.90
2022-09-23T00:45:51.219Z,99.90
2022-09-23T00:50:24.397Z,99.90
2022-09-23T00:54:43.078Z,99.90
2022-09-23T00:59:01.414Z,99.90
2022-09-23T01:03:19.744Z,99.90
2022-09-23T01:07:36.951Z,99.90
2022-09-23T01:12:13.047Z,99.90
2022-09-23T01:17:18.616Z,99.90
2022-09-23T01:21:52.830Z,99.90
2022-09-23T01:26:34.673Z,99.90
2022-09-23T01:31:05.677Z,99.90
2022-09-23T01:35:32.009Z,99.90
2022-09-23T01:40:22.817Z,99.90
2022-09-23T01:44:50.172Z,99.90
2022-09-23T01:49:17.813Z,99.90
2022-09-23T01:54:26.123Z,99.90
2022-09-23T01:58:54.229Z,99.90
2022-09-23T02:03:17.138Z,99.90
2022-09-23T02:07:43.208Z,99.90
2022-09-23T02:12:05.804Z,99.90
2022-09-23T02:16:35.763Z,99.90
2022-09-23T02:20:57.813Z,99.90
2022-09-23T02:25:17.393Z,99.90
2022-09-23T02:29:57.252Z,99.90
2022-09-23T02:34:50.708Z,99.90
2022-09-23T02:39:12.566Z,99.90
2022-09-23T02:43:40.278Z,99.90
2022-09-23T02:48:05.411Z,99.90
2022-09-23T02:52:25.263Z,99.90
2022-09-23T02:56:43.020Z,99.90
2022-09-23T03:01:33.020Z,99.90
2022-09-23T03:05:59.181Z,99.90
2022-09-23T03:10:22.530Z,99.90
2022-09-23T03:14:51.404Z,99.90
2022-09-23T03:19:27.868Z,99.90
2022-09-23T03:23:47.186Z,99.90
2022-09-23T03:28:06.168Z,99.90
2022-09-23T03:32:27.924Z,99.90
2022-09-23T03:37:01.473Z,99.90
2022-09-23T03:41:31.687Z,99.90
2022-09-23T03:45:50.061Z,99.90
2022-09-23T03:50:07.583Z,99.90
2022-09-23T03:54:25.223Z,99.90
2022-09-23T03:58:42.525Z,99.90
2022-09-23T04:03:00.188Z,99.90
2022-09-23T04:07:17.991Z,99.90
2022-09-23T04:11:35.537Z,99.90
2022-09-23T04:15:52.750Z,99.90
2022-09-23T04:20:10.376Z,99.90
2022-09-23T04:24:27.798Z,99.90
2022-09-23T04:28:45.125Z,99.90
2022-09-23T04:33:02.322Z,99.90
2022-09-23T04:37:19.537Z,99.90
2022-09-23T04:41:37.314Z,99.90
2022-09-23T04:46:00.912Z,99.90
2022-09-23T04:50:18.896Z,99.90
2022-09-23T04:54:36.766Z,99.90
2022-09-23T04:58:54.783Z,99.90
2022-09-23T05:03:13.738Z,99.90
2022-09-23T05:07:31.231Z,99.90
2022-09-23T05:11:48.590Z,99.90
2022-09-23T05:16:08.990Z,99.90
2022-09-23T05:20:26.422Z,99.90
2022-09-23T05:24:43.760Z,99.90
2022-09-23T05:29:01.366Z,99.90
2022-09-23T05:33:19.702Z,99.90
2022-09-23T05:37:38.322Z,99.90
2022-09-23T05:41:56.296Z,99.90
2022-09-23T05:46:19.053Z,99.90
2022-09-23T05:50:36.760Z,99.90
2022-09-23T05:54:54.284Z,99.90
2022-09-23T05:59:11.502Z,99.90
2022-09-23T06:03:28.928Z,99.90
2022-09-23T06:07:46.243Z,99.90
2022-09-23T06:12:04.121Z,99.90
2022-09-23T06:16:21.588Z,99.90
2022-09-23T06:20:39.437Z,99.90
2022-09-23T06:24:56.796Z,99.90
2022-09-23T06:29:15.524Z,99.90
2022-09-23T06:33:37.088Z,99.90
2022-09-23T06:37:55.347Z,99.90
2022-09-23T06:42:13.499Z,99.90
2022-09-23T06:46:32.189Z,99.90
2022-09-23T06:50:49.619Z,99.90
2022-09-23T06:55:07.716Z,99.90
2022-09-23T06:59:25.040Z,99.90
2022-09-23T07:03:42.748Z,99.90
2022-09-23T07:08:01.052Z,99.90
2022-09-23T07:12:19.666Z,99.90
2022-09-23T07:16:37.015Z,99.90
2022-09-23T07:20:58.076Z,99.90
2022-09-23T07:25:15.709Z,99.90
2022-09-23T07:29:44.587Z,99.90
2022-09-23T07:34:04.926Z,99.90
2022-09-23T07:38:30.427Z,99.90
2022-09-23T07:42:47.971Z,99.90
2022-09-23T07:47:05.547Z,99.90
2022-09-23T07:51:35.445Z,99.90
2022-09-23T07:55:57.030Z,99.90
2022-09-23T08:00:14.535Z,99.90
2022-09-23T08:04:32.890Z,99.90
2022-09-23T08:08:53.318Z,99.90
2022-09-23T08:13:11.553Z,99.90
2022-09-23T08:17:28.926Z,99.90
2022-09-23T08:21:47.608Z,99.90
2022-09-23T08:26:15.748Z,99.90
2022-09-23T08:30:38.986Z,99.90
2022-09-23T08:34:57.072Z,99.90
2022-09-23T08:39:18.809Z,99.90
2022-09-23T08:43:37.809Z,99.90
2022-09-23T08:47:59.251Z,99.90
2022-09-23T08:52:48.979Z,99.90
2022-09-23T08:57:12.455Z,99.90
2022-09-23T09:01:45.322Z,99.90
2022-09-23T09:06:03.605Z,99.90
2022-09-23T09:10:28.372Z,99.90
2022-09-23T09:15:02.647Z,99.90
2022-09-23T09:19:52.719Z,99.90
2022-09-23T09:24:19.826Z,99.90
2022-09-23T09:28:51.330Z,99.90
2022-09-23T09:33:17.395Z,99.90
2022-09-23T09:37:46.840Z,98.60
2022-09-23T09:42:05.996Z,93.80
2022-09-23T09:46:46.816Z,92.60
2022-09-23T09:51:22.684Z,80.60
2022-09-23T09:55:40.082Z,84.30
2022-09-23T09:59:58.416Z,79.30
2022-09-23T10:04:23.851Z,78.80
2022-09-23T10:08:41.254Z,75.50
2022-09-23T10:13:15.275Z,81.10
2022-09-23T10:17:34.365Z,73.10
2022-09-23T10:22:00.276Z,73.70
2022-09-23T10:26:25.509Z,71.80
2022-09-23T10:31:03.245Z,67.20
2022-09-23T10:35:33.525Z,71.80
2022-09-23T10:40:09.955Z,69.10
2022-09-23T10:45:02.056Z,70.70
2022-09-23T10:49:56.383Z,72.50
2022-09-23T10:54:31.619Z,62.20
2022-09-23T10:59:10.435Z,62.10
2022-09-23T11:03:57.470Z,59.40
2022-09-23T11:08:30.587Z,68.80
2022-09-23T11:13:05.785Z,69.60
2022-09-23T11:17:29.334Z,63.80
2022-09-23T11:22:08.385Z,65.70
2022-09-23T11:26:46.122Z,60.50
2022-09-23T11:31:10.335Z,64.80
2022-09-23T11:35:31.242Z,62.10
2022-09-23T11:40:02.782Z,63.50
2022-09-23T11:44:41.224Z,63.40
2022-09-23T11:49:23.257Z,63.00
2022-09-23T11:53:50.092Z,64.00
2022-09-23T11:58:24.594Z,71.00
2022-09-23T12:03:02.178Z,65.20
2022-09-23T12:07:29.177Z,59.60
2022-09-23T12:11:50.697Z,65.20
2022-09-23T12:16:25.801Z,63.10
2022-09-23T12:21:08.982Z,56.70
2022-09-23T12:26:02.981Z,59.30
2022-09-23T12:30:30.595Z,60.20
2022-09-23T12:34:52.257Z,57.70
2022-09-23T12:39:28.612Z,61.60
2022-09-23T12:43:56.144Z,60.80
2022-09-23T12:48:16.598Z,62.50
2022-09-23T12:52:35.074Z,57.40
2022-09-23T12:56:56.137Z,62.30
2022-09-23T13:01:20.910Z,65.80
2022-09-23T13:06:10.661Z,64.10
2022-09-23T13:10:34.121Z,65.40
2022-09-23T13:14:54.980Z,56.80
2022-09-23T13:19:27.247Z,62.90
2022-09-23T13:24:13.618Z,57.60
2022-09-23T13:28:41.795Z,57.40
2022-09-23T13:33:25.627Z,55.70
2022-09-23T13:37:47.789Z,57.10
2022-09-23T13:42:06.897Z,55.40
2022-09-23T13:46:28.157Z,57.00
2022-09-23T13:50:49.487Z,55.70
2022-09-23T13:55:23.511Z,57.00
2022-09-23T13:59:44.216Z,58.70
2022-09-23T14:04:04.980Z,58.20
2022-09-23T14:08:22.881Z,58.40
2022-09-23T14:12:40.392Z,60.90
2022-09-23T14:16:58.984Z,60.00
2022-09-23T14:21:37.089Z,59.80
2022-09-23T14:25:55.712Z,59.80
2022-09-23T14:30:18.985Z,61.10
2022-09-23T14:34:48.433Z,62.80
2022-09-23T14:39:08.905Z,61.60
2022-09-23T14:43:30.076Z,61.00
2022-09-23T14:47:50.476Z,61.70
2022-09-23T14:52:07.853Z,60.80
2022-09-23T14:56:25.461Z,62.00
2022-09-23T15:00:57.300Z,63.40
2022-09-23T15:05:20.740Z,60.80
2022-09-23T15:09:42.598Z,62.20
2022-09-23T15:14:19.693Z,65.60
2022-09-23T15:18:44.356Z,63.50
2022-09-23T15:23:02.060Z,63.20
2022-09-23T15:27:28.007Z,64.00
2022-09-23T15:31:47.701Z,62.70
2022-09-23T15:36:05.481Z,63.30
2022-09-23T15:40:36.433Z,61.40
2022-09-23T15:44:54.170Z,66.20
2022-09-23T15:49:33.785Z,63.20
2022-09-23T15:53:51.167Z,63.60
2022-09-23T15:58:08.506Z,66.40
2022-09-23T16:02:28.030Z,66.10
2022-09-23T16:06:48.101Z,67.40
2022-09-23T16:11:06.461Z,73.60
2022-09-23T16:15:24.816Z,74.30
2022-09-23T16:19:42.394Z,79.50
2022-09-23T16:23:59.747Z,87.50
2022-09-23T16:28:17.024Z,91.20
2022-09-23T16:32:35.237Z,93.10
2022-09-23T16:36:53.099Z,98.80
2022-09-23T16:41:11.495Z,99.90
2022-09-23T16:45:28.954Z,99.90
2022-09-23T16:49:46.291Z,99.90
2022-09-23T16:54:10.534Z,99.90
2022-09-23T16:58:27.829Z,99.90
2022-09-23T17:03:03.608Z,99.90
2022-09-23T17:07:21.217Z,99.90
2022-09-23T17:11:38.715Z,99.90
2022-09-23T17:15:56.164Z,99.90
2022-09-23T17:20:14.781Z,99.90
2022-09-23T17:24:32.398Z,99.90
2022-09-23T17:28:56.762Z,99.90
2022-09-23T17:33:14.271Z,99.90
2022-09-23T17:37:32.617Z,99.90
2022-09-23T17:41:49.871Z,99.90
2022-09-23T17:46:13.101Z,99.90
2022-09-23T17:50:31.360Z,99.90
2022-09-23T17:54:48.724Z,99.90
2022-09-23T17:59:06.111Z,99.90
2022-09-23T18:03:27.707Z,99.90
2022-09-23T18:07:45.026Z,99.90
2022-09-23T18:12:02.434Z,99.90
2022-09-23T18:16:21.348Z,99.90
2022-09-23T18:20:40.045Z,99.90
2022-09-23T18:24:57.406Z,99.90
2022-09-23T18:29:16.034Z,99.90
2022-09-23T18:33:33.437Z,99.90
2022-09-23T18:37:50.948Z,99.90
2022-09-23T18:42:08.271Z,99.90
2022-09-23T18:46:29.532Z,99.90
2022-09-23T18:50:48.881Z,99.90
2022-09-23T18:55:06.492Z,99.90
2022-09-23T18:59:27.919Z,99.90
2022-09-23T19:03:45.489Z,99.90
2022-09-23T19:08:05.556Z,99.90
2022-09-23T19:12:23.024Z,99.90
2022-09-23T19:16:41.820Z,99.90
2022-09-23T19:21:06.300Z,99.90
2022-09-23T19:25:26.706Z,99.90
2022-09-23T19:29:50.077Z,99.90
2022-09-23T19:34:14.995Z,99.90
2022-09-23T19:38:32.988Z,99.90
2022-09-23T19:42:54.170Z,99.90
2022-09-23T19:47:15.811Z,99.90
2022-09-23T19:51:34.195Z,99.90
2022-09-23T19:55:53.625Z,99.90
2022-09-23T20:00:11.872Z,99.90
2022-09-23T20:04:29.527Z,99.90
2022-09-23T20:08:47.978Z,99.90
2022-09-23T20:13:05.351Z,99.90
2022-09-23T20:17:22.696Z,99.90
2022-09-23T20:21:40.106Z,99.90
2022-09-23T20:26:20.203Z,99.90
2022-09-23T20:30:39.085Z,99.90
2022-09-23T20:34:56.436Z,99.90
2022-09-23T20:39:13.637Z,99.90
2022-09-23T20:43:34.056Z,99.90
2022-09-23T20:47:51.394Z,99.90
2022-09-23T20:52:10.382Z,99.90
2022-09-23T20:56:28.566Z,99.90
2022-09-23T21:00:47.074Z,99.90
2022-09-23T21:05:04.954Z,99.90
2022-09-23T21:09:22.550Z,99.90
2022-09-23T21:13:40.221Z,99.90
2022-09-23T21:17:57.557Z,99.90
2022-09-23T21:22:14.771Z,99.90
2022-09-23T21:26:32.200Z,99.90
2022-09-23T21:30:52.085Z,99.90
2022-09-23T21:35:10.533Z,99.90
2022-09-23T21:39:27.852Z,99.90
2022-09-23T21:43:45.694Z,99.90
2022-09-23T21:48:04.193Z,99.90
2022-09-23T21:52:21.495Z,99.90
2022-09-23T21:56:38.952Z,99.90
2022-09-23T22:00:56.846Z,99.90
2022-09-23T22:05:14.107Z,99.90
2022-09-23T22:09:31.414Z,99.90
2022-09-23T22:13:49.014Z,99.90
2022-09-23T22:18:06.395Z,99.90
2022-09-23T22:22:23.710Z,99.90
2022-09-23T22:26:43.142Z,99.90
2022-09-23T22:31:18.868Z,99.90
2022-09-23T22:35:36.491Z,99.90
2022-09-23T22:39:54.426Z,99.90
2022-09-23T22:44:11.882Z,99.90
2022-09-23T22:48:30.755Z,99.90
2022-09-23T22:52:47.945Z,99.90
2022-09-23T22:57:09.147Z,99.90
2022-09-23T23:01:26.942Z,99.90
2022-09-23T23:05:45.765Z,99.90
2022-09-23T23:10:04.884Z,99.90
2022-09-23T23:14:22.274Z,99.90
2022-09-23T23:18:41.610Z,99.90
2022-09-23T23:23:01.976Z,99.90
2022-09-23T23:27:19.240Z,99.90
2022-09-23T23:31:36.527Z,99.90
2022-09-23T23:35:54.071Z,99.90
2022-09-23T23:40:11.439Z,99.90
2022-09-23T23:44:31.153Z,99.90
2022-09-23T23:48:49.110Z,99.90
2022-09-23T23:53:06.358Z,99.90
2022-09-23T23:57:23.711Z,99.90
